createdAt,value
2018-10-02T00:00:37.217Z,1018.37
2018-10-02T00:01:37.280Z,1018.38
2018-10-02T00:02:37.322Z,1018.40
2018-10-02T00:03:37.294Z,1018.40
2018-10-02T00:04:37.412Z,1018.36
2018-10-02T00:05:37.400Z,1018.35
2018-10-02T00:06:37.436Z,1018.33
2018-10-02T00:07:37.407Z,1018.29
2018-10-02T00:08:37.785Z,1018.32
2018-10-02T00:09:37.514Z,1018.31
2018-10-02T00:10:37.568Z,1018.41
2018-10-02T00:11:37.577Z,1018.42
2018-10-02T00:12:37.612Z,1018.41
2018-10-02T00:13:37.632Z,1018.38
2018-10-02T00:14:37.663Z,1018.43
2018-10-02T00:15:37.957Z,1018.41
2018-10-02T00:16:37.670Z,1018.38
2018-10-02T00:17:37.761Z,1018.38
2018-10-02T00:18:37.729Z,1018.37
2018-10-02T00:19:37.758Z,1018.39
2018-10-02T00:20:37.839Z,1018.36
2018-10-02T00:21:37.873Z,1018.32
2018-10-02T00:22:38.149Z,1018.32
2018-10-02T00:23:37.878Z,1018.32
2018-10-02T00:24:37.914Z,1018.34
2018-10-02T00:25:37.987Z,1018.29
2018-10-02T00:26:38.014Z,1018.31
2018-10-02T00:27:38.046Z,1018.31
2018-10-02T00:28:38.076Z,1018.35
2018-10-02T00:29:38.360Z,1018.36
2018-10-02T00:30:38.132Z,1018.37
2018-10-02T00:31:38.184Z,1018.38
2018-10-02T00:32:38.143Z,1018.34
2018-10-02T00:33:38.224Z,1018.31
2018-10-02T00:34:38.254Z,1018.32
2018-10-02T00:35:38.281Z,1018.33
2018-10-02T00:36:38.611Z,1018.37
2018-10-02T00:37:38.343Z,1018.36
2018-10-02T00:38:38.319Z,1018.37
2018-10-02T00:39:38.448Z,1018.32
2018-10-02T00:40:38.432Z,1018.37
2018-10-02T00:41:38.458Z,1018.38
2018-10-02T00:50:48.591Z,1018.14
2018-10-02T00:51:48.668Z,1018.10
2018-10-02T00:52:48.662Z,1018.10
2018-10-02T00:53:48.679Z,1018.10
2018-10-02T00:54:48.761Z,1018.07
2018-10-02T00:55:48.788Z,1018.07
2018-10-02T00:56:49.074Z,1018.07
2018-10-02T00:57:48.845Z,1018.09
2018-10-02T00:58:48.826Z,1018.09
2018-10-02T00:59:48.905Z,1018.09
2018-10-02T01:00:48.938Z,1018.11
2018-10-02T01:01:48.965Z,1018.08
2018-10-02T01:02:49.250Z,1018.05
2018-10-02T01:03:49.025Z,1018.08
2018-10-02T01:04:49.013Z,1018.07
2018-10-02T01:05:49.083Z,1018.06
2018-10-02T01:06:49.110Z,1018.06
2018-10-02T01:07:49.141Z,1018.05
2018-10-02T01:08:49.421Z,1018.07
2018-10-02T01:09:49.201Z,1018.05
2018-10-02T01:10:49.228Z,1018.05
2018-10-02T01:11:49.209Z,1018.05
2018-10-02T01:12:49.289Z,1018.03
2018-10-02T01:13:49.319Z,1018.00
2018-10-02T01:14:49.348Z,1017.96
2018-10-02T01:15:49.628Z,1017.96
2018-10-02T01:16:49.409Z,1017.95
2018-10-02T01:17:49.437Z,1017.95
2018-10-02T01:18:49.516Z,1018.04
2018-10-02T01:19:49.496Z,1018.01
2018-10-02T01:20:49.484Z,1017.99
2018-10-02T01:21:49.555Z,1018.04
2018-10-02T01:22:49.832Z,1018.00
2018-10-02T01:23:49.612Z,1018.04
2018-10-02T01:24:49.641Z,1018.03
2018-10-02T01:25:49.674Z,1018.07
2018-10-02T01:26:49.703Z,1018.10
2018-10-02T01:27:49.686Z,1018.05
2018-10-02T01:28:49.962Z,1018.05
2018-10-02T01:29:50.145Z,1018.01
2018-10-02T01:30:49.768Z,1018.02
2018-10-02T01:31:49.857Z,1017.99
2018-10-02T01:32:49.879Z,1018.02
2018-10-02T01:33:49.906Z,1018.05
2018-10-02T01:34:49.944Z,1018.05
2018-10-02T01:35:49.969Z,1018.08
2018-10-02T01:36:50.246Z,1018.05
2018-10-02T01:37:50.028Z,1018.05
2018-10-02T01:38:50.004Z,1018.00
2018-10-02T01:39:50.091Z,1018.01
2018-10-02T01:40:50.112Z,1018.02
2018-10-02T01:41:50.101Z,1018.02
2018-10-02T01:42:50.122Z,1018.00
2018-10-02T01:43:50.211Z,1017.95
2018-10-02T01:45:50.261Z,1017.93
2018-10-02T01:46:50.392Z,1017.91
2018-10-02T01:47:50.270Z,1017.93
2018-10-02T01:48:50.353Z,1017.92
2018-10-02T01:49:50.634Z,1017.93
2018-10-02T01:50:50.360Z,1017.91
2018-10-02T01:51:50.446Z,1017.92
2018-10-02T01:53:50.516Z,1017.85
2018-10-02T01:54:50.525Z,1017.85
2018-10-02T01:55:50.560Z,1017.87
2018-10-02T01:56:50.837Z,1017.83
2018-10-02T01:57:50.614Z,1017.82
2018-10-02T01:58:50.602Z,1017.78
2018-10-02T01:59:50.624Z,1017.74
2018-10-02T02:00:50.707Z,1017.75
2018-10-02T02:01:50.731Z,1017.73
2018-10-02T02:02:50.763Z,1017.73
2018-10-02T02:03:51.041Z,1017.71
2018-10-02T02:04:50.821Z,1017.71
2018-10-02T02:05:50.802Z,1017.71
2018-10-02T02:06:50.931Z,1017.61
2018-10-02T02:07:50.862Z,1017.60
2018-10-02T02:08:50.890Z,1017.58
2018-10-02T02:09:50.969Z,1017.58
2018-10-02T02:10:51.248Z,1017.64
2018-10-02T02:11:50.982Z,1017.63
2018-10-02T02:12:51.014Z,1017.66
2018-10-02T02:13:51.088Z,1017.65
2018-10-02T02:14:51.067Z,1017.66
2018-10-02T02:15:51.094Z,1017.64
2018-10-02T02:16:51.181Z,1017.62
2018-10-02T02:17:51.462Z,1017.63
2018-10-02T02:18:51.250Z,1017.61
2018-10-02T02:19:51.264Z,1017.57
2018-10-02T02:20:51.249Z,1017.56
2018-10-02T02:21:51.331Z,1017.52
2018-10-02T02:22:51.378Z,1017.51
2018-10-02T02:23:51.330Z,1017.50
2018-10-02T02:24:51.660Z,1017.49
2018-10-02T02:25:51.446Z,1017.44
2018-10-02T02:26:51.469Z,1017.43
2018-10-02T02:28:51.578Z,1017.36
2018-10-02T02:29:51.558Z,1017.32
2018-10-02T02:30:51.837Z,1017.34
2018-10-02T02:31:51.567Z,1017.33
2018-10-02T02:32:51.596Z,1017.34
2018-10-02T02:33:51.680Z,1017.32
2018-10-02T02:34:51.705Z,1017.32
2018-10-02T02:36:51.777Z,1017.33
2018-10-02T02:37:52.046Z,1017.35
2018-10-02T02:38:51.772Z,1017.35
2018-10-02T02:39:51.800Z,1017.33
2018-10-02T02:40:51.933Z,1017.29
2018-10-02T02:41:51.914Z,1017.28
2018-10-02T02:42:51.942Z,1017.28
2018-10-02T02:43:52.221Z,1017.28
2018-10-02T02:44:51.957Z,1017.26
2018-10-02T02:45:52.031Z,1017.27
2018-10-02T02:46:52.061Z,1017.21
2018-10-02T02:47:52.088Z,1017.24
2018-10-02T02:48:52.116Z,1017.24
2018-10-02T02:49:52.396Z,1017.24
2018-10-02T02:50:52.174Z,1017.21
2018-10-02T02:51:52.211Z,1017.19
2018-10-02T02:52:52.192Z,1017.15
2018-10-02T02:53:52.263Z,1017.16
2018-10-02T02:54:52.392Z,1017.13
2018-10-02T02:55:52.322Z,1017.10
2018-10-02T02:56:52.613Z,1017.11
2018-10-02T02:57:52.384Z,1017.07
2018-10-02T02:58:52.379Z,1017.08
2018-10-02T02:59:52.442Z,1017.07
2018-10-02T03:00:52.471Z,1017.09
2018-10-02T03:01:52.449Z,1017.12
2018-10-02T03:02:52.482Z,1017.07
2018-10-02T03:03:52.815Z,1017.09
2018-10-02T03:04:52.589Z,1017.03
2018-10-02T03:05:52.626Z,1017.02
2018-10-02T03:06:52.649Z,1016.99
2018-10-02T03:07:52.675Z,1016.99
2018-10-02T03:08:52.716Z,1016.98
2018-10-02T03:09:52.749Z,1017.01
2018-10-02T03:10:53.026Z,1016.97
2018-10-02T03:11:52.792Z,1017.01
2018-10-02T03:12:52.772Z,1017.05
2018-10-02T03:13:52.854Z,1017.02
2018-10-02T03:14:52.963Z,1017.01
2018-10-02T03:15:52.864Z,1016.98
2018-10-02T03:16:52.955Z,1016.99
2018-10-02T03:17:53.282Z,1016.98
2018-10-02T03:18:52.954Z,1016.94
2018-10-02T03:19:53.033Z,1016.86
2018-10-02T03:20:53.010Z,1016.87
2018-10-02T03:21:53.113Z,1016.88
2018-10-02T03:22:53.117Z,1016.85
2018-10-02T03:23:53.168Z,1016.84
2018-10-02T03:24:53.431Z,1016.87
2018-10-02T03:25:53.209Z,1016.87
2018-10-02T03:26:53.237Z,1016.90
2018-10-02T03:27:53.242Z,1016.93
2018-10-02T03:28:53.295Z,1016.89
2018-10-02T03:29:53.287Z,1016.86
2018-10-02T03:30:53.357Z,1016.88
2018-10-02T03:31:53.638Z,1016.85
2018-10-02T03:32:53.414Z,1016.79
2018-10-02T03:33:53.444Z,1016.83
2018-10-02T03:34:53.423Z,1016.82
2018-10-02T03:35:53.453Z,1016.79
2018-10-02T03:36:53.479Z,1016.81
2018-10-02T03:37:53.585Z,1016.79
2018-10-02T03:38:53.839Z,1016.80
2018-10-02T03:39:53.620Z,1016.78
2018-10-02T03:40:53.646Z,1016.79
2018-10-02T03:41:53.680Z,1016.79
2018-10-02T03:42:53.657Z,1016.82
2018-10-02T03:43:53.752Z,1016.83
2018-10-02T03:44:53.715Z,1016.83
2018-10-02T03:45:54.050Z,1016.81
2018-10-02T03:46:53.829Z,1016.73
2018-10-02T03:47:53.808Z,1016.67
2018-10-02T03:48:53.886Z,1016.65
2018-10-02T03:49:53.914Z,1016.65
2018-10-02T03:50:53.944Z,1016.67
2018-10-02T03:51:53.920Z,1016.64
2018-10-02T03:52:54.258Z,1016.68
2018-10-02T03:53:54.035Z,1016.71
2018-10-02T03:54:54.068Z,1016.75
2018-10-02T03:55:54.090Z,1016.76
2018-10-02T03:57:54.154Z,1016.78
2018-10-02T03:59:54.209Z,1016.73
2018-10-02T04:00:54.497Z,1016.68
2018-10-02T04:02:54.282Z,1016.58
2018-10-02T04:03:54.281Z,1016.59
2018-10-02T04:04:54.359Z,1016.58
2018-10-02T04:05:54.385Z,1016.51
2018-10-02T04:06:54.436Z,1016.45
2018-10-02T04:07:54.708Z,1016.43
2018-10-02T04:08:54.473Z,1016.35
2018-10-02T04:10:54.481Z,1016.31
2018-10-02T04:11:54.520Z,1016.27
2018-10-02T04:12:54.542Z,1016.29
2018-10-02T04:13:54.618Z,1016.29
2018-10-02T04:14:54.901Z,1016.30
2018-10-02T04:15:54.634Z,1016.32
2018-10-02T04:16:54.709Z,1016.30
2018-10-02T04:17:54.738Z,1016.31
2018-10-02T04:18:54.716Z,1016.29
2018-10-02T04:19:54.800Z,1016.28
2018-10-02T04:20:54.937Z,1016.28
2018-10-02T04:21:55.106Z,1016.27
2018-10-02T04:22:54.885Z,1016.23
2018-10-02T04:23:54.914Z,1016.17
2018-10-02T04:24:54.943Z,1016.14
2018-10-02T04:25:54.975Z,1016.18
2018-10-02T04:26:54.952Z,1016.19
2018-10-02T04:27:55.012Z,1016.17
2018-10-02T04:28:55.311Z,1016.19
2018-10-02T04:29:55.141Z,1016.16
2018-10-02T04:30:55.119Z,1016.12
2018-10-02T04:31:55.102Z,1016.12
2018-10-02T04:36:55.597Z,1016.00
2018-10-02T04:37:55.325Z,1016.01
2018-10-02T04:38:55.304Z,1015.98
2018-10-02T04:39:55.388Z,1015.94
2018-10-02T04:40:55.413Z,1015.91
2018-10-02T04:42:55.476Z,1015.87
2018-10-02T04:43:55.752Z,1015.81
2018-10-02T04:44:55.489Z,1015.81
2018-10-02T04:45:55.561Z,1015.79
2018-10-02T04:46:55.667Z,1015.75
2018-10-02T04:47:55.570Z,1015.73
2018-10-02T04:48:55.601Z,1015.73
2018-10-02T04:49:55.741Z,1015.70
2018-10-02T04:50:55.956Z,1015.69
2018-10-02T04:51:55.688Z,1015.69
2018-10-02T04:52:55.717Z,1015.71
2018-10-02T04:53:55.747Z,1015.68
2018-10-02T04:54:55.800Z,1015.66
2018-10-02T04:55:55.904Z,1015.62
2018-10-02T04:56:55.834Z,1015.65
2018-10-02T04:57:55.916Z,1015.66
2018-10-02T04:58:55.895Z,1015.64
2018-10-02T04:59:55.923Z,1015.67
2018-10-02T05:00:55.953Z,1015.63
2018-10-02T05:01:55.984Z,1015.65
2018-10-02T05:02:56.063Z,1015.64
2018-10-02T05:03:56.362Z,1015.67
2018-10-02T05:04:56.126Z,1015.67
2018-10-02T05:05:56.155Z,1015.67
2018-10-02T05:06:56.141Z,1015.63
2018-10-02T05:07:56.164Z,1015.64
2018-10-02T05:08:56.194Z,1015.60
2018-10-02T05:09:56.526Z,1015.63
2018-10-02T05:10:56.286Z,1015.63
2018-10-02T05:11:56.329Z,1015.65
2018-10-02T05:12:56.311Z,1015.65
2018-10-02T05:13:56.398Z,1015.67
2018-10-02T05:14:56.368Z,1015.68
2018-10-02T05:15:56.739Z,1015.67
2018-10-02T05:16:56.429Z,1015.69
2018-10-02T05:17:56.503Z,1015.68
2018-10-02T05:18:56.533Z,1015.64
2018-10-02T05:19:56.517Z,1015.66
2018-10-02T05:20:56.604Z,1015.66
2018-10-02T05:21:56.621Z,1015.67
2018-10-02T05:22:56.601Z,1015.68
2018-10-02T05:23:56.684Z,1015.70
2018-10-02T05:24:56.661Z,1015.71
2018-10-02T05:25:56.749Z,1015.70
2018-10-02T05:26:56.781Z,1015.70
2018-10-02T05:27:57.050Z,1015.68
2018-10-02T05:28:56.791Z,1015.66
2018-10-02T05:29:56.858Z,1015.56
2018-10-02T05:30:56.841Z,1015.48
2018-10-02T05:31:56.919Z,1015.49
2018-10-02T05:32:56.944Z,1015.45
2018-10-02T05:33:56.929Z,1015.45
2018-10-02T05:34:57.281Z,1015.52
2018-10-02T05:35:56.987Z,1015.56
2018-10-02T05:36:57.069Z,1015.54
2018-10-02T05:37:57.094Z,1015.57
2018-10-02T05:38:57.074Z,1015.55
2018-10-02T05:39:57.155Z,1015.53
2018-10-02T05:40:57.181Z,1015.51
2018-10-02T05:41:57.464Z,1015.51
2018-10-02T05:42:57.245Z,1015.49
2018-10-02T05:43:57.223Z,1015.43
2018-10-02T05:44:57.306Z,1015.42
2018-10-02T05:45:57.336Z,1015.40
2018-10-02T05:46:57.306Z,1015.42
2018-10-02T05:47:57.344Z,1015.42
2018-10-02T05:48:57.673Z,1015.43
2018-10-02T05:49:57.401Z,1015.43
2018-10-02T05:50:57.430Z,1015.39
2018-10-02T05:51:57.454Z,1015.39
2018-10-02T05:52:57.486Z,1015.32
2018-10-02T05:53:57.776Z,1015.31
2018-10-02T05:54:57.548Z,1015.35
2018-10-02T05:55:57.589Z,1015.35
2018-10-02T05:56:57.603Z,1015.37
2018-10-02T05:57:57.688Z,1015.34
2018-10-02T05:58:57.720Z,1015.32
2018-10-02T05:59:57.694Z,1015.39
2018-10-02T06:00:57.717Z,1015.45
2018-10-02T06:01:58.055Z,1015.45
2018-10-02T06:02:57.835Z,1015.45
2018-10-02T06:03:57.903Z,1015.41
2018-10-02T06:04:57.931Z,1015.37
2018-10-02T06:05:57.866Z,1015.39
2018-10-02T06:06:57.905Z,1015.32
2018-10-02T06:07:58.247Z,1015.34
2018-10-02T06:08:58.014Z,1015.29
2018-10-02T06:09:58.107Z,1015.28
2018-10-02T06:10:58.017Z,1015.27
2018-10-02T06:11:58.100Z,1015.30
2018-10-02T06:12:58.072Z,1015.27
2018-10-02T06:13:58.159Z,1015.26
2018-10-02T06:14:58.136Z,1015.25
2018-10-02T06:15:58.210Z,1015.25
2018-10-02T06:16:58.201Z,1015.21
2018-10-02T06:17:58.306Z,1015.22
2018-10-02T06:18:58.307Z,1015.20
2018-10-02T06:19:58.348Z,1015.21
2018-10-02T06:20:58.377Z,1015.17
2018-10-02T06:21:58.393Z,1015.18
2018-10-02T06:22:58.368Z,1015.17
2018-10-02T06:23:58.399Z,1015.12
2018-10-02T06:24:58.475Z,1015.13
2018-10-02T06:25:58.806Z,1015.12
2018-10-02T06:26:58.491Z,1015.12
2018-10-02T06:27:58.600Z,1015.13
2018-10-02T06:28:58.595Z,1015.10
2018-10-02T06:29:58.631Z,1015.08
2018-10-02T06:30:58.606Z,1015.08
2018-10-02T06:31:58.640Z,1015.06
2018-10-02T06:32:58.960Z,1015.08
2018-10-02T06:33:58.747Z,1015.05
2018-10-02T06:34:58.727Z,1015.11
2018-10-02T06:35:58.810Z,1015.08
2018-10-02T06:36:58.788Z,1015.09
2018-10-02T06:37:58.911Z,1015.09
2018-10-02T06:38:58.930Z,1015.11
2018-10-02T06:39:59.175Z,1015.09
2018-10-02T06:40:58.896Z,1015.10
2018-10-02T06:41:58.935Z,1015.18
2018-10-02T06:42:58.975Z,1015.19
2018-10-02T06:43:58.993Z,1015.22
2018-10-02T06:44:59.068Z,1015.25
2018-10-02T06:45:59.100Z,1015.21
2018-10-02T06:46:59.380Z,1015.22
2018-10-02T06:47:59.112Z,1015.23
2018-10-02T06:48:59.241Z,1015.16
2018-10-02T06:49:59.216Z,1015.17
2018-10-02T06:50:59.283Z,1015.24
2018-10-02T06:51:59.379Z,1015.20
2018-10-02T06:52:59.255Z,1015.17
2018-10-02T06:53:59.584Z,1015.20
2018-10-02T06:54:59.307Z,1015.10
2018-10-02T06:55:59.344Z,1015.15
2018-10-02T06:56:59.496Z,1015.11
2018-10-02T06:57:59.457Z,1015.09
2018-10-02T06:58:59.424Z,1015.10
2018-10-02T06:59:59.459Z,1015.07
2018-10-02T07:00:59.788Z,1015.01
2018-10-02T07:01:59.574Z,1014.98
2018-10-02T07:02:59.599Z,1014.90
2018-10-02T07:03:59.575Z,1014.87
2018-10-02T07:04:59.656Z,1014.89
2018-10-02T07:05:59.698Z,1014.89
2018-10-02T07:06:59.715Z,1014.98
2018-10-02T07:08:00.042Z,1014.99
2018-10-02T07:08:59.776Z,1014.99
2018-10-02T07:09:59.800Z,1015.01
2018-10-02T07:10:59.830Z,1014.92
2018-10-02T07:11:59.814Z,1014.96
2018-10-02T07:12:59.892Z,1014.93
2018-10-02T07:14:00.185Z,1014.97
2018-10-02T07:14:59.950Z,1014.89
2018-10-02T07:15:59.937Z,1014.86
2018-10-02T07:16:59.962Z,1014.82
2018-10-02T07:18:00.043Z,1014.86
2018-10-02T07:19:00.073Z,1014.86
2018-10-02T07:20:00.360Z,1014.85
2018-10-02T07:21:00.198Z,1014.83
2018-10-02T07:23:00.132Z,1014.82
2018-10-02T07:24:00.175Z,1014.80
2018-10-02T07:25:00.194Z,1014.83
2018-10-02T07:26:00.273Z,1014.86
2018-10-02T07:27:00.436Z,1014.81
2018-10-02T07:28:00.409Z,1014.86
2018-10-02T07:29:00.369Z,1014.82
2018-10-02T07:30:00.390Z,1014.80
2018-10-02T07:31:00.488Z,1014.80
2018-10-02T07:32:00.706Z,1014.80
2018-10-02T07:33:00.453Z,1014.77
2018-10-02T07:34:00.484Z,1014.75
2018-10-02T07:35:00.493Z,1014.69
2018-10-02T07:36:00.519Z,1014.63
2018-10-02T07:37:00.656Z,1014.59
2018-10-02T07:38:00.639Z,1014.59
2018-10-02T07:39:00.692Z,1014.67
2018-10-02T07:40:00.642Z,1014.65
2018-10-02T07:41:00.680Z,1014.55
2018-10-02T07:42:00.843Z,1014.54
2018-10-02T07:43:00.744Z,1014.51
2018-10-02T07:44:00.816Z,1014.54
2018-10-02T07:45:00.874Z,1014.57
2018-10-02T07:46:00.889Z,1014.54
2018-10-02T07:47:00.901Z,1014.48
2018-10-02T07:48:00.959Z,1014.42
2018-10-02T07:49:01.036Z,1014.39
2018-10-02T07:50:01.037Z,1014.39
2018-10-02T07:51:01.512Z,1014.37
2018-10-02T07:52:01.266Z,1014.34
2018-10-02T07:53:01.086Z,1014.31
2018-10-02T07:54:01.202Z,1014.33
2018-10-02T07:55:01.152Z,1014.29
2018-10-02T07:56:01.198Z,1014.33
2018-10-02T07:57:01.513Z,1014.32
2018-10-02T07:58:01.334Z,1014.28
2018-10-02T07:59:01.207Z,1014.27
2018-10-02T08:00:01.280Z,1014.32
2018-10-02T08:01:01.332Z,1014.33
2018-10-02T08:02:01.361Z,1014.32
2018-10-02T08:03:01.734Z,1014.31
2018-10-02T08:04:01.444Z,1014.28
2018-10-02T08:05:01.456Z,1014.35
2018-10-02T08:06:01.594Z,1014.41
2018-10-02T08:07:01.507Z,1014.37
2018-10-02T08:08:01.490Z,1014.44
2018-10-02T08:09:02.026Z,1014.48
2018-10-02T08:10:01.591Z,1014.53
2018-10-02T08:11:01.730Z,1014.59
2018-10-02T08:12:01.733Z,1014.55
2018-10-02T08:13:01.764Z,1014.56
2018-10-02T08:14:01.833Z,1014.57
2018-10-02T08:15:02.014Z,1014.57
2018-10-02T08:16:01.784Z,1014.56
2018-10-02T08:17:02.785Z,1014.59
2018-10-02T08:18:06.308Z,1014.63
2018-10-02T08:19:01.968Z,1014.61
2018-10-02T08:20:01.927Z,1014.67
2018-10-02T08:21:02.071Z,1014.70
2018-10-02T08:22:02.272Z,1014.67
2018-10-02T08:23:02.036Z,1014.70
2018-10-02T08:24:02.081Z,1014.67
2018-10-02T08:25:02.105Z,1014.68
2018-10-02T08:26:02.207Z,1014.67
2018-10-02T08:27:02.226Z,1014.70
2018-10-02T08:28:02.303Z,1014.69
2018-10-02T08:29:02.713Z,1014.72
2018-10-02T08:30:02.267Z,1014.68
2018-10-02T08:31:02.215Z,1014.67
2018-10-02T08:32:02.302Z,1014.71
2018-10-02T08:33:02.257Z,1014.64
2018-10-02T08:34:02.348Z,1014.62
2018-10-02T08:35:02.587Z,1014.62
2018-10-02T08:36:02.538Z,1014.62
2018-10-02T08:37:02.550Z,1014.62
2018-10-02T08:38:02.428Z,1014.64
2018-10-02T08:39:02.513Z,1014.62
2018-10-02T08:40:02.471Z,1014.61
2018-10-02T08:41:02.892Z,1014.54
2018-10-02T08:42:02.555Z,1014.50
2018-10-02T08:43:02.510Z,1014.44
2018-10-02T08:44:02.638Z,1014.42
2018-10-02T08:45:02.607Z,1014.37
2018-10-02T08:46:02.682Z,1014.38
2018-10-02T08:47:02.650Z,1014.44
2018-10-02T08:49:02.757Z,1014.39
2018-10-02T08:50:02.779Z,1014.38
2018-10-02T08:51:02.943Z,1014.37
2018-10-02T08:52:02.975Z,1014.33
2018-10-02T08:53:03.278Z,1014.38
2018-10-02T08:54:03.038Z,1014.37
2018-10-02T08:55:02.931Z,1014.44
2018-10-02T08:56:02.954Z,1014.44
2018-10-02T08:57:03.112Z,1014.44
2018-10-02T08:58:03.018Z,1014.44
2018-10-02T08:59:03.074Z,1014.40
2018-10-02T09:00:03.384Z,1014.47
2018-10-02T09:01:03.170Z,1014.45
2018-10-02T09:02:03.166Z,1014.49
2018-10-02T09:03:03.177Z,1014.48
2018-10-02T09:04:03.255Z,1014.50
2018-10-02T09:05:03.503Z,1014.50
2018-10-02T09:06:03.265Z,1014.47
2018-10-02T09:07:03.602Z,1014.45
2018-10-02T09:08:03.267Z,1014.44
2018-10-02T09:09:03.393Z,1014.41
2018-10-02T09:10:03.406Z,1014.41
2018-10-02T09:11:03.403Z,1014.42
2018-10-02T09:12:03.450Z,1014.41
2018-10-02T09:13:03.518Z,1014.39
2018-10-02T09:14:03.908Z,1014.37
2018-10-02T09:15:03.582Z,1014.28
2018-10-02T09:16:03.593Z,1014.22
2018-10-02T09:17:03.593Z,1014.23
2018-10-02T09:18:03.640Z,1014.30
2018-10-02T09:19:03.723Z,1014.25
2018-10-02T09:20:03.718Z,1014.27
2018-10-02T09:21:04.011Z,1014.23
2018-10-02T09:22:03.842Z,1014.22
2018-10-02T09:23:03.751Z,1014.18
2018-10-02T09:24:04.076Z,1014.29
2018-10-02T09:26:03.861Z,1014.28
2018-10-02T09:27:04.242Z,1014.27
2018-10-02T09:28:04.261Z,1014.23
2018-10-02T09:29:03.951Z,1014.34
2018-10-02T09:31:04.047Z,1014.32
2018-10-02T09:32:04.018Z,1014.33
2018-10-02T09:33:04.078Z,1014.34
2018-10-02T09:34:04.171Z,1014.27
2018-10-02T09:35:04.441Z,1014.32
2018-10-02T09:36:04.150Z,1014.31
2018-10-02T09:37:04.283Z,1014.32
2018-10-02T09:38:04.222Z,1014.34
2018-10-02T09:39:04.242Z,1014.34
2018-10-02T09:40:04.331Z,1014.34
2018-10-02T09:41:04.328Z,1014.34
2018-10-02T09:42:04.447Z,1014.33
2018-10-02T09:43:04.392Z,1014.31
2018-10-02T09:44:04.480Z,1014.30
2018-10-02T09:45:04.457Z,1014.34
2018-10-02T09:46:04.614Z,1014.26
2018-10-02T09:47:04.430Z,1014.28
2018-10-02T09:48:04.826Z,1014.27
2018-10-02T09:49:04.622Z,1014.30
2018-10-02T09:50:04.596Z,1014.29
2018-10-02T09:51:04.658Z,1014.28
2018-10-02T09:52:04.657Z,1014.25
2018-10-02T09:53:04.769Z,1014.25
2018-10-02T09:54:04.717Z,1014.22
2018-10-02T09:55:05.105Z,1014.21
2018-10-02T09:56:05.121Z,1014.19
2018-10-02T09:57:04.955Z,1014.15
2018-10-02T09:58:04.805Z,1014.20
2018-10-02T09:59:04.827Z,1014.23
2018-10-02T10:00:05.241Z,1014.26
2018-10-02T10:01:05.251Z,1014.25
2018-10-02T10:02:05.031Z,1014.21
2018-10-02T10:03:04.981Z,1014.24
2018-10-02T10:04:05.011Z,1014.22
2018-10-02T10:06:05.113Z,1014.14
2018-10-02T10:07:05.402Z,1014.16
2018-10-02T10:08:05.123Z,1014.20
2018-10-02T10:09:05.183Z,1014.23
2018-10-02T10:10:05.643Z,1014.23
2018-10-02T10:11:05.235Z,1014.26
2018-10-02T10:12:05.249Z,1014.25
2018-10-02T10:13:05.256Z,1014.32
2018-10-02T10:14:05.288Z,1014.26
2018-10-02T10:15:05.340Z,1014.29
2018-10-02T10:16:05.374Z,1014.30
2018-10-02T10:17:05.459Z,1014.29
2018-10-02T10:18:05.392Z,1014.18
2018-10-02T10:19:05.459Z,1014.19
2018-10-02T10:20:05.549Z,1014.13
2018-10-02T10:21:05.493Z,1014.14
2018-10-02T10:22:05.517Z,1014.04
2018-10-02T10:23:06.243Z,1014.04
2018-10-02T10:24:05.774Z,1014.01
2018-10-02T10:25:05.922Z,1014.11
2018-10-02T10:26:05.764Z,1013.92
2018-10-02T10:27:05.696Z,1014.01
2018-10-02T10:28:06.163Z,1014.02
2018-10-02T10:29:05.953Z,1014.01
2018-10-02T10:30:05.784Z,1013.97
2018-10-02T10:31:05.797Z,1013.97
2018-10-02T10:32:06.148Z,1014.02
2018-10-02T10:33:06.474Z,1013.97
2018-10-02T10:34:06.646Z,1013.92
2018-10-02T10:36:06.606Z,1013.86
2018-10-02T10:37:06.876Z,1013.88
2018-10-02T10:38:06.835Z,1013.88
2018-10-02T10:39:06.426Z,1013.89
2018-10-02T10:40:07.009Z,1013.83
2018-10-02T10:42:06.619Z,1013.77
2018-10-02T10:43:07.053Z,1013.81
2018-10-02T10:46:06.459Z,1013.84
2018-10-02T10:49:06.374Z,1013.70
2018-10-02T10:50:06.345Z,1013.73
2018-10-02T10:51:06.378Z,1013.65
2018-10-02T10:52:06.434Z,1013.67
2018-10-02T10:53:06.592Z,1013.64
2018-10-02T10:54:06.480Z,1013.68
2018-10-02T10:55:06.745Z,1013.67
2018-10-02T10:56:06.494Z,1013.70
2018-10-02T10:57:06.577Z,1013.61
2018-10-02T10:58:06.629Z,1013.64
2018-10-02T10:59:06.607Z,1013.62
2018-10-02T11:00:06.665Z,1013.59
2018-10-02T11:01:07.094Z,1013.57
2018-10-02T11:02:06.820Z,1013.61
2018-10-02T11:03:06.798Z,1013.59
2018-10-02T11:04:06.909Z,1013.59
2018-10-02T11:05:06.819Z,1013.50
2018-10-02T11:06:06.904Z,1013.53
2018-10-02T11:07:06.871Z,1013.54
2018-10-02T11:08:07.292Z,1013.57
2018-10-02T11:09:06.942Z,1013.53
2018-10-02T11:10:07.092Z,1013.52
2018-10-02T11:11:06.996Z,1013.52
2018-10-02T11:12:06.962Z,1013.40
2018-10-02T11:13:07.039Z,1013.37
2018-10-02T11:14:07.065Z,1013.42
2018-10-02T11:15:07.399Z,1013.29
2018-10-02T11:16:07.134Z,1013.26
2018-10-02T11:17:07.453Z,1013.21
2018-10-02T11:18:07.251Z,1013.26
2018-10-02T11:19:07.166Z,1013.32
2018-10-02T11:20:07.283Z,1013.26
2018-10-02T11:21:07.583Z,1013.20
2018-10-02T11:22:07.301Z,1013.25
2018-10-02T11:23:07.332Z,1013.11
2018-10-02T11:24:07.489Z,1013.25
2018-10-02T11:25:07.404Z,1013.25
2018-10-02T11:26:07.444Z,1013.28
2018-10-02T11:27:07.472Z,1013.29
2018-10-02T11:28:07.441Z,1013.29
2018-10-02T11:29:07.495Z,1013.26
2018-10-02T11:30:07.623Z,1013.15
2018-10-02T11:31:07.833Z,1013.21
2018-10-02T11:32:07.645Z,1013.21
2018-10-02T11:33:07.936Z,1013.24
2018-10-02T11:34:07.692Z,1013.23
2018-10-02T11:35:07.692Z,1013.23
2018-10-02T11:36:07.816Z,1013.19
2018-10-02T11:37:10.431Z,1013.19
2018-10-02T11:38:10.660Z,1013.19
2018-10-02T11:39:08.913Z,1013.21
2018-10-02T11:40:08.690Z,1013.25
2018-10-02T11:41:07.873Z,1013.17
2018-10-02T11:42:07.914Z,1013.12
2018-10-02T11:43:07.971Z,1013.14
2018-10-02T11:44:08.056Z,1013.15
2018-10-02T11:45:08.074Z,1013.14
2018-10-02T11:47:08.300Z,1013.12
2018-10-02T11:48:08.245Z,1013.13
2018-10-02T11:49:08.120Z,1013.08
2018-10-02T11:50:08.273Z,1013.10
2018-10-02T11:51:08.188Z,1013.09
2018-10-02T11:52:08.338Z,1013.09
2018-10-02T11:53:08.290Z,1013.04
2018-10-02T11:54:08.608Z,1013.08
2018-10-02T11:55:08.363Z,1013.09
2018-10-02T11:56:08.375Z,1013.04
2018-10-02T11:57:08.331Z,1013.10
2018-10-02T11:58:08.326Z,1013.09
2018-10-02T11:59:08.474Z,1013.09
2018-10-02T12:00:08.507Z,1013.01
2018-10-02T12:01:08.960Z,1013.08
2018-10-02T12:02:08.493Z,1013.02
2018-10-02T12:03:08.617Z,1012.94
2018-10-02T12:05:08.599Z,1012.99
2018-10-02T12:06:08.707Z,1012.96
2018-10-02T12:07:08.852Z,1012.96
2018-10-02T12:08:08.995Z,1013.02
2018-10-02T12:09:08.783Z,1012.98
2018-10-02T12:10:08.765Z,1012.91
2018-10-02T12:11:08.851Z,1013.02
2018-10-02T12:12:08.867Z,1012.99
2018-10-02T12:13:08.779Z,1012.99
2018-10-02T12:14:09.815Z,1012.95
2018-10-02T12:15:09.258Z,1012.91
2018-10-02T12:16:08.893Z,1012.90
2018-10-02T12:17:08.908Z,1012.88
2018-10-02T12:18:08.923Z,1012.76
2018-10-02T12:19:09.044Z,1012.88
2018-10-02T12:20:09.093Z,1012.86
2018-10-02T12:22:09.118Z,1012.84
2018-10-02T12:23:09.466Z,1012.79
2018-10-02T12:24:09.169Z,1012.91
2018-10-02T12:25:09.177Z,1012.90
2018-10-02T12:26:09.473Z,1012.93
2018-10-02T12:27:09.257Z,1013.00
2018-10-02T12:28:09.240Z,1012.97
2018-10-02T12:29:09.948Z,1013.02
2018-10-02T12:30:09.666Z,1012.87
2018-10-02T12:31:09.335Z,1012.92
2018-10-02T12:32:09.399Z,1012.91
2018-10-02T12:33:09.439Z,1012.92
2018-10-02T12:34:09.458Z,1012.94
2018-10-02T12:35:09.520Z,1012.86
2018-10-02T12:36:09.591Z,1012.78
2018-10-02T12:37:09.577Z,1012.86
2018-10-02T12:38:09.637Z,1012.78
2018-10-02T12:39:09.658Z,1012.82
2018-10-02T12:40:09.664Z,1012.82
2018-10-02T12:41:09.683Z,1012.77